sensor_id;sensor_type;location;lat;lon;timestamp;P1;durP1;ratioP1;P2;durP2;ratioP2
16977;SDS011;8605;52.548;4.918;2022-10-03T00:00:59;12.73;;;1.80;;
16977;SDS011;8605;52.548;4.918;2022-10-03T00:06:35;9.70;;;1.60;;
16977;SDS011;8605;52.548;4.918;2022-10-03T00:12:08;2.87;;;1.60;;
16977;SDS011;8605;52.548;4.918;2022-10-03T00:17:40;6.97;;;1.60;;
16977;SDS011;8605;52.548;4.918;2022-10-03T00:23:07;4.67;;;2.50;;
16977;SDS011;8605;52.548;4.918;2022-10-03T00:28:42;13.87;;;1.50;;
16977;SDS011;8605;52.548;4.918;2022-10-03T00:34:13;8.73;;;1.43;;
16977;SDS011;8605;52.548;4.918;2022-10-03T00:39:48;3.13;;;1.33;;
16977;SDS011;8605;52.548;4.918;2022-10-03T00:45:33;4.43;;;1.23;;
16977;SDS011;8605;52.548;4.918;2022-10-03T00:51:11;2.83;;;1.17;;
16977;SDS011;8605;52.548;4.918;2022-10-03T00:56:54;12.03;;;1.73;;
16977;SDS011;8605;52.548;4.918;2022-10-03T01:02:34;1.17;;;0.97;;
16977;SDS011;8605;52.548;4.918;2022-10-03T01:14:11;4.70;;;1.00;;
16977;SDS011;8605;52.548;4.918;2022-10-03T01:19:47;3.33;;;1.70;;
16977;SDS011;8605;52.548;4.918;2022-10-03T01:25:27;3.40;;;1.07;;
16977;SDS011;8605;52.548;4.918;2022-10-03T01:30:58;9.57;;;1.67;;
16977;SDS011;8605;52.548;4.918;2022-10-03T01:36:24;10.87;;;1.63;;
16977;SDS011;8605;52.548;4.918;2022-10-03T01:41:55;3.50;;;1.23;;
16977;SDS011;8605;52.548;4.918;2022-10-03T01:47:24;8.40;;;1.60;;
16977;SDS011;8605;52.548;4.918;2022-10-03T01:52:52;4.93;;;1.00;;
16977;SDS011;8605;52.548;4.918;2022-10-03T01:58:21;8.63;;;2.63;;
16977;SDS011;8605;52.548;4.918;2022-10-03T02:03:52;7.53;;;1.57;;
16977;SDS011;8605;52.548;4.918;2022-10-03T02:09:22;4.23;;;1.30;;
16977;SDS011;8605;52.548;4.918;2022-10-03T02:14:50;1.70;;;0.87;;
16977;SDS011;8605;52.548;4.918;2022-10-03T02:20:20;3.83;;;2.23;;
16977;SDS011;8605;52.548;4.918;2022-10-03T02:25:50;4.63;;;1.50;;
16977;SDS011;8605;52.548;4.918;2022-10-03T02:31:24;4.93;;;1.43;;
16977;SDS011;8605;52.548;4.918;2022-10-03T02:55:59;4.77;;;1.10;;
16977;SDS011;8605;52.548;4.918;2022-10-03T03:01:48;2.30;;;1.40;;
16977;SDS011;8605;52.548;4.918;2022-10-03T03:07:31;12.33;;;1.23;;
16977;SDS011;8605;52.548;4.918;2022-10-03T03:19:04;9.13;;;2.00;;
16977;SDS011;8605;52.548;4.918;2022-10-03T03:24:38;1.40;;;1.13;;
16977;SDS011;8605;52.548;4.918;2022-10-03T03:30:09;1.97;;;0.97;;
16977;SDS011;8605;52.548;4.918;2022-10-03T03:35:38;2.07;;;0.90;;
16977;SDS011;8605;52.548;4.918;2022-10-03T03:41:12;8.20;;;1.83;;
16977;SDS011;8605;52.548;4.918;2022-10-03T03:46:49;3.27;;;1.50;;
16977;SDS011;8605;52.548;4.918;2022-10-03T03:52:24;3.10;;;1.27;;
16977;SDS011;8605;52.548;4.918;2022-10-03T03:58:05;0.93;;;0.83;;
16977;SDS011;8605;52.548;4.918;2022-10-03T04:03:44;1.60;;;0.90;;
16977;SDS011;8605;52.548;4.918;2022-10-03T04:15:22;2.47;;;1.00;;
16977;SDS011;8605;52.548;4.918;2022-10-03T04:20:56;5.17;;;1.37;;
16977;SDS011;8605;52.548;4.918;2022-10-03T04:26:27;2.80;;;0.90;;
16977;SDS011;8605;52.548;4.918;2022-10-03T04:31:59;2.40;;;1.03;;
16977;SDS011;8605;52.548;4.918;2022-10-03T04:37:36;3.17;;;1.00;;
16977;SDS011;8605;52.548;4.918;2022-10-03T04:43:03;5.63;;;1.10;;
16977;SDS011;8605;52.548;4.918;2022-10-03T04:48:33;4.00;;;0.90;;
16977;SDS011;8605;52.548;4.918;2022-10-03T04:54:02;3.87;;;2.20;;
16977;SDS011;8605;52.548;4.918;2022-10-03T04:59:41;3.43;;;1.30;;
16977;SDS011;8605;52.548;4.918;2022-10-03T05:05:24;8.07;;;1.10;;
16977;SDS011;8605;52.548;4.918;2022-10-03T05:10:54;2.43;;;1.37;;
16977;SDS011;8605;52.548;4.918;2022-10-03T05:16:22;9.00;;;1.30;;
16977;SDS011;8605;52.548;4.918;2022-10-03T05:21:59;4.23;;;1.40;;
16977;SDS011;8605;52.548;4.918;2022-10-03T05:27:28;5.40;;;1.10;;
16977;SDS011;8605;52.548;4.918;2022-10-03T05:32:59;1.97;;;0.97;;
16977;SDS011;8605;52.548;4.918;2022-10-03T05:38:33;7.90;;;1.87;;
16977;SDS011;8605;52.548;4.918;2022-10-03T05:44:20;4.13;;;1.60;;
16977;SDS011;8605;52.548;4.918;2022-10-03T05:49:50;7.10;;;1.20;;
16977;SDS011;8605;52.548;4.918;2022-10-03T05:55:41;8.57;;;1.30;;
16977;SDS011;8605;52.548;4.918;2022-10-03T06:01:19;2.90;;;0.90;;
16977;SDS011;8605;52.548;4.918;2022-10-03T06:07:00;3.30;;;1.13;;
16977;SDS011;8605;52.548;4.918;2022-10-03T06:12:32;2.23;;;1.63;;
16977;SDS011;8605;52.548;4.918;2022-10-03T06:18:03;5.40;;;1.50;;
16977;SDS011;8605;52.548;4.918;2022-10-03T06:23:44;2.80;;;1.60;;
16977;SDS011;8605;52.548;4.918;2022-10-03T06:29:23;6.47;;;1.97;;
16977;SDS011;8605;52.548;4.918;2022-10-03T06:35:30;2.73;;;1.20;;
16977;SDS011;8605;52.548;4.918;2022-10-03T06:41:25;1.73;;;0.70;;
16977;SDS011;8605;52.548;4.918;2022-10-03T06:47:16;5.83;;;1.83;;
16977;SDS011;8605;52.548;4.918;2022-10-03T06:53:01;6.17;;;1.73;;
16977;SDS011;8605;52.548;4.918;2022-10-03T06:58:39;4.73;;;1.50;;
16977;SDS011;8605;52.548;4.918;2022-10-03T07:04:26;4.67;;;1.57;;
16977;SDS011;8605;52.548;4.918;2022-10-03T07:10:19;3.27;;;1.70;;
16977;SDS011;8605;52.548;4.918;2022-10-03T07:27:53;4.20;;;1.43;;
16977;SDS011;8605;52.548;4.918;2022-10-03T07:51:12;7.63;;;1.80;;
16977;SDS011;8605;52.548;4.918;2022-10-03T07:56:46;4.57;;;1.57;;
16977;SDS011;8605;52.548;4.918;2022-10-03T08:02:31;6.27;;;1.63;;
16977;SDS011;8605;52.548;4.918;2022-10-03T08:08:12;11.73;;;3.50;;
16977;SDS011;8605;52.548;4.918;2022-10-03T08:14:00;4.23;;;1.90;;
16977;SDS011;8605;52.548;4.918;2022-10-03T08:19:37;4.40;;;1.50;;
16977;SDS011;8605;52.548;4.918;2022-10-03T08:25:24;6.43;;;2.10;;
16977;SDS011;8605;52.548;4.918;2022-10-03T08:30:57;3.33;;;2.03;;
16977;SDS011;8605;52.548;4.918;2022-10-03T08:36:43;3.50;;;1.90;;
16977;SDS011;8605;52.548;4.918;2022-10-03T08:42:24;4.30;;;1.73;;
16977;SDS011;8605;52.548;4.918;2022-10-03T08:54:05;3.70;;;1.67;;
16977;SDS011;8605;52.548;4.918;2022-10-03T09:05:47;8.60;;;2.30;;
16977;SDS011;8605;52.548;4.918;2022-10-03T09:11:41;8.23;;;2.27;;
16977;SDS011;8605;52.548;4.918;2022-10-03T09:17:19;3.30;;;1.90;;
16977;SDS011;8605;52.548;4.918;2022-10-03T09:34:54;6.43;;;1.67;;
16977;SDS011;8605;52.548;4.918;2022-10-03T09:40:53;6.00;;;1.60;;
16977;SDS011;8605;52.548;4.918;2022-10-03T09:46:42;7.87;;;2.73;;
16977;SDS011;8605;52.548;4.918;2022-10-03T09:52:36;2.47;;;1.43;;
16977;SDS011;8605;52.548;4.918;2022-10-03T09:58:14;6.80;;;1.63;;
16977;SDS011;8605;52.548;4.918;2022-10-03T10:10:23;2.57;;;2.10;;
16977;SDS011;8605;52.548;4.918;2022-10-03T10:16:12;4.70;;;1.13;;
16977;SDS011;8605;52.548;4.918;2022-10-03T10:21:59;3.50;;;1.63;;
16977;SDS011;8605;52.548;4.918;2022-10-03T10:33:57;4.93;;;1.33;;
16977;SDS011;8605;52.548;4.918;2022-10-03T10:39:46;8.77;;;1.20;;
16977;SDS011;8605;52.548;4.918;2022-10-03T10:45:43;2.70;;;2.40;;
16977;SDS011;8605;52.548;4.918;2022-10-03T10:57:12;4.87;;;1.30;;
16977;SDS011;8605;52.548;4.918;2022-10-03T11:08:54;5.87;;;1.50;;
16977;SDS011;8605;52.548;4.918;2022-10-03T11:14:54;2.87;;;1.00;;
16977;SDS011;8605;52.548;4.918;2022-10-03T11:26:54;5.03;;;0.93;;
16977;SDS011;8605;52.548;4.918;2022-10-03T11:32:49;13.30;;;1.67;;
16977;SDS011;8605;52.548;4.918;2022-10-03T11:38:30;8.68;;;1.27;;
16977;SDS011;8605;52.548;4.918;2022-10-03T11:44:04;5.35;;;1.10;;
16977;SDS011;8605;52.548;4.918;2022-10-03T11:49:44;3.05;;;1.27;;
16977;SDS011;8605;52.548;4.918;2022-10-03T11:55:24;2.63;;;1.35;;
16977;SDS011;8605;52.548;4.918;2022-10-03T12:00:54;8.35;;;1.10;;
16977;SDS011;8605;52.548;4.918;2022-10-03T12:06:36;3.33;;;1.17;;
16977;SDS011;8605;52.548;4.918;2022-10-03T12:12:28;6.75;;;2.03;;
16977;SDS011;8605;52.548;4.918;2022-10-03T12:17:59;6.38;;;1.35;;
16977;SDS011;8605;52.548;4.918;2022-10-03T12:23:31;4.85;;;1.65;;
16977;SDS011;8605;52.548;4.918;2022-10-03T12:29:09;4.00;;;1.52;;
16977;SDS011;8605;52.548;4.918;2022-10-03T12:34:37;8.77;;;1.67;;
16977;SDS011;8605;52.548;4.918;2022-10-03T12:40:03;5.18;;;1.40;;
16977;SDS011;8605;52.548;4.918;2022-10-03T12:45:33;9.07;;;2.13;;
16977;SDS011;8605;52.548;4.918;2022-10-03T12:50:59;6.57;;;1.70;;
16977;SDS011;8605;52.548;4.918;2022-10-03T12:56:29;6.40;;;1.58;;
16977;SDS011;8605;52.548;4.918;2022-10-03T13:07:48;2.20;;;1.38;;
16977;SDS011;8605;52.548;4.918;2022-10-03T13:13:23;4.05;;;1.48;;
16977;SDS011;8605;52.548;4.918;2022-10-03T13:18:56;4.85;;;2.28;;
16977;SDS011;8605;52.548;4.918;2022-10-03T13:24:27;5.93;;;1.48;;
16977;SDS011;8605;52.548;4.918;2022-10-03T13:30:04;3.83;;;1.83;;
16977;SDS011;8605;52.548;4.918;2022-10-03T13:35:35;9.05;;;1.48;;
16977;SDS011;8605;52.548;4.918;2022-10-03T13:41:27;8.18;;;1.58;;
16977;SDS011;8605;52.548;4.918;2022-10-03T13:46:53;8.27;;;1.27;;
16977;SDS011;8605;52.548;4.918;2022-10-03T13:52:24;10.25;;;3.28;;
16977;SDS011;8605;52.548;4.918;2022-10-03T13:57:55;4.60;;;1.80;;
16977;SDS011;8605;52.548;4.918;2022-10-03T14:03:26;6.93;;;2.13;;
16977;SDS011;8605;52.548;4.918;2022-10-03T14:15:13;8.77;;;2.00;;
16977;SDS011;8605;52.548;4.918;2022-10-03T14:21:07;10.75;;;1.67;;
16977;SDS011;8605;52.548;4.918;2022-10-03T14:26:54;5.97;;;1.40;;
16977;SDS011;8605;52.548;4.918;2022-10-03T14:32:22;4.03;;;1.42;;
16977;SDS011;8605;52.548;4.918;2022-10-03T14:38:14;4.93;;;1.48;;
16977;SDS011;8605;52.548;4.918;2022-10-03T14:44:11;4.30;;;1.42;;
16977;SDS011;8605;52.548;4.918;2022-10-03T14:49:37;6.70;;;2.17;;
16977;SDS011;8605;52.548;4.918;2022-10-03T14:55:19;6.95;;;1.80;;
16977;SDS011;8605;52.548;4.918;2022-10-03T15:00:51;4.90;;;2.05;;
16977;SDS011;8605;52.548;4.918;2022-10-03T15:11:58;4.75;;;1.48;;
16977;SDS011;8605;52.548;4.918;2022-10-03T15:17:24;5.32;;;1.60;;
16977;SDS011;8605;52.548;4.918;2022-10-03T15:22:51;5.68;;;1.73;;
16977;SDS011;8605;52.548;4.918;2022-10-03T15:28:17;5.60;;;2.53;;
16977;SDS011;8605;52.548;4.918;2022-10-03T15:33:42;4.50;;;1.40;;
16977;SDS011;8605;52.548;4.918;2022-10-03T15:39:15;2.75;;;1.52;;
16977;SDS011;8605;52.548;4.918;2022-10-03T15:44:47;6.28;;;1.50;;
16977;SDS011;8605;52.548;4.918;2022-10-03T15:50:16;5.97;;;1.63;;
16977;SDS011;8605;52.548;4.918;2022-10-03T15:55:43;3.08;;;1.70;;
16977;SDS011;8605;52.548;4.918;2022-10-03T16:01:11;6.78;;;1.60;;
16977;SDS011;8605;52.548;4.918;2022-10-03T16:06:39;3.85;;;2.25;;
16977;SDS011;8605;52.548;4.918;2022-10-03T16:12:25;6.32;;;1.63;;
16977;SDS011;8605;52.548;4.918;2022-10-03T16:17:59;10.18;;;1.95;;
16977;SDS011;8605;52.548;4.918;2022-10-03T16:23:25;7.77;;;2.07;;
16977;SDS011;8605;52.548;4.918;2022-10-03T16:28:51;6.50;;;2.40;;
16977;SDS011;8605;52.548;4.918;2022-10-03T16:34:21;3.43;;;1.97;;
16977;SDS011;8605;52.548;4.918;2022-10-03T16:39:57;5.43;;;1.87;;
16977;SDS011;8605;52.548;4.918;2022-10-03T16:45:25;8.03;;;2.00;;
16977;SDS011;8605;52.548;4.918;2022-10-03T16:50:51;3.77;;;2.63;;
16977;SDS011;8605;52.548;4.918;2022-10-03T16:56:15;8.70;;;2.70;;
16977;SDS011;8605;52.548;4.918;2022-10-03T17:01:42;4.37;;;1.87;;
16977;SDS011;8605;52.548;4.918;2022-10-03T17:07:11;4.93;;;2.37;;
16977;SDS011;8605;52.548;4.918;2022-10-03T17:12:37;1.73;;;1.10;;
16977;SDS011;8605;52.548;4.918;2022-10-03T17:18:09;4.40;;;1.43;;
16977;SDS011;8605;52.548;4.918;2022-10-03T17:23:38;5.33;;;2.20;;
16977;SDS011;8605;52.548;4.918;2022-10-03T17:29:02;9.60;;;2.20;;
16977;SDS011;8605;52.548;4.918;2022-10-03T17:34:37;11.87;;;2.70;;
16977;SDS011;8605;52.548;4.918;2022-10-03T17:40:03;7.53;;;1.90;;
16977;SDS011;8605;52.548;4.918;2022-10-03T17:45:38;5.07;;;2.37;;
16977;SDS011;8605;52.548;4.918;2022-10-03T17:51:22;3.80;;;2.90;;
16977;SDS011;8605;52.548;4.918;2022-10-03T17:56:55;3.63;;;1.50;;
16977;SDS011;8605;52.548;4.918;2022-10-03T18:02:22;4.93;;;2.27;;
16977;SDS011;8605;52.548;4.918;2022-10-03T18:07:49;3.07;;;2.00;;
16977;SDS011;8605;52.548;4.918;2022-10-03T18:13:15;8.90;;;2.20;;
16977;SDS011;8605;52.548;4.918;2022-10-03T18:24:46;7.53;;;3.00;;
16977;SDS011;8605;52.548;4.918;2022-10-03T18:30:13;11.70;;;2.93;;
16977;SDS011;8605;52.548;4.918;2022-10-03T18:35:37;8.37;;;2.60;;
16977;SDS011;8605;52.548;4.918;2022-10-03T18:41:03;9.30;;;2.40;;
16977;SDS011;8605;52.548;4.918;2022-10-03T18:46:27;11.30;;;3.67;;
16977;SDS011;8605;52.548;4.918;2022-10-03T18:51:53;5.07;;;2.63;;
16977;SDS011;8605;52.548;4.918;2022-10-03T18:57:21;7.13;;;2.73;;
16977;SDS011;8605;52.548;4.918;2022-10-03T19:02:46;6.83;;;2.97;;
16977;SDS011;8605;52.548;4.918;2022-10-03T19:08:15;5.70;;;2.23;;
16977;SDS011;8605;52.548;4.918;2022-10-03T19:13:43;8.37;;;3.07;;
16977;SDS011;8605;52.548;4.918;2022-10-03T19:19:16;13.97;;;2.97;;
16977;SDS011;8605;52.548;4.918;2022-10-03T19:24:46;9.47;;;2.50;;
16977;SDS011;8605;52.548;4.918;2022-10-03T19:30:21;13.20;;;3.17;;
16977;SDS011;8605;52.548;4.918;2022-10-03T19:35:46;6.13;;;2.53;;
16977;SDS011;8605;52.548;4.918;2022-10-03T19:41:13;7.93;;;2.57;;
16977;SDS011;8605;52.548;4.918;2022-10-03T19:46:48;14.73;;;3.93;;
16977;SDS011;8605;52.548;4.918;2022-10-03T19:52:16;11.47;;;3.80;;
16977;SDS011;8605;52.548;4.918;2022-10-03T19:57:42;11.20;;;3.27;;
16977;SDS011;8605;52.548;4.918;2022-10-03T20:03:11;21.93;;;7.27;;
16977;SDS011;8605;52.548;4.918;2022-10-03T20:08:37;12.47;;;3.67;;
16977;SDS011;8605;52.548;4.918;2022-10-03T20:14:02;3.83;;;2.70;;
16977;SDS011;8605;52.548;4.918;2022-10-03T20:19:27;8.20;;;3.73;;
16977;SDS011;8605;52.548;4.918;2022-10-03T20:24:53;7.43;;;3.27;;
16977;SDS011;8605;52.548;4.918;2022-10-03T20:30:21;9.07;;;5.27;;
16977;SDS011;8605;52.548;4.918;2022-10-03T20:35:50;6.17;;;3.33;;
16977;SDS011;8605;52.548;4.918;2022-10-03T20:41:15;11.97;;;4.03;;
16977;SDS011;8605;52.548;4.918;2022-10-03T20:46:42;6.77;;;3.20;;
16977;SDS011;8605;52.548;4.918;2022-10-03T20:52:14;9.70;;;3.50;;
16977;SDS011;8605;52.548;4.918;2022-10-03T20:57:41;7.03;;;4.37;;
16977;SDS011;8605;52.548;4.918;2022-10-03T21:03:06;8.17;;;2.97;;
16977;SDS011;8605;52.548;4.918;2022-10-03T21:08:38;6.13;;;3.07;;
16977;SDS011;8605;52.548;4.918;2022-10-03T21:14:03;5.87;;;3.30;;
16977;SDS011;8605;52.548;4.918;2022-10-03T21:19:36;9.60;;;3.60;;
16977;SDS011;8605;52.548;4.918;2022-10-03T21:25:10;13.97;;;4.77;;
16977;SDS011;8605;52.548;4.918;2022-10-03T21:30:44;8.70;;;3.43;;
16977;SDS011;8605;52.548;4.918;2022-10-03T21:36:17;7.10;;;3.30;;
16977;SDS011;8605;52.548;4.918;2022-10-03T21:41:55;9.50;;;4.37;;
16977;SDS011;8605;52.548;4.918;2022-10-03T21:47:29;15.73;;;4.10;;
16977;SDS011;8605;52.548;4.918;2022-10-03T21:53:03;15.73;;;4.67;;
16977;SDS011;8605;52.548;4.918;2022-10-03T21:58:39;14.77;;;3.70;;
16977;SDS011;8605;52.548;4.918;2022-10-03T22:04:12;12.33;;;4.73;;
16977;SDS011;8605;52.548;4.918;2022-10-03T22:09:42;12.00;;;4.33;;
16977;SDS011;8605;52.548;4.918;2022-10-03T22:15:09;8.20;;;4.10;;
16977;SDS011;8605;52.548;4.918;2022-10-03T22:20:34;8.00;;;2.93;;
16977;SDS011;8605;52.548;4.918;2022-10-03T22:26:07;9.37;;;3.90;;
16977;SDS011;8605;52.548;4.918;2022-10-03T22:31:37;10.13;;;3.77;;
16977;SDS011;8605;52.548;4.918;2022-10-03T22:37:04;8.13;;;3.50;;
16977;SDS011;8605;52.548;4.918;2022-10-03T22:42:27;9.77;;;3.80;;
16977;SDS011;8605;52.548;4.918;2022-10-03T22:47:55;8.10;;;3.47;;
16977;SDS011;8605;52.548;4.918;2022-10-03T22:53:21;4.77;;;2.87;;
16977;SDS011;8605;52.548;4.918;2022-10-03T22:58:47;7.77;;;3.67;;
16977;SDS011;8605;52.548;4.918;2022-10-03T23:04:14;7.57;;;3.83;;
16977;SDS011;8605;52.548;4.918;2022-10-03T23:09:42;5.40;;;3.20;;
16977;SDS011;8605;52.548;4.918;2022-10-03T23:15:11;8.17;;;5.03;;
16977;SDS011;8605;52.548;4.918;2022-10-03T23:20:45;5.77;;;3.80;;
16977;SDS011;8605;52.548;4.918;2022-10-03T23:26:29;13.13;;;4.40;;
16977;SDS011;8605;52.548;4.918;2022-10-03T23:31:59;10.87;;;4.10;;
16977;SDS011;8605;52.548;4.918;2022-10-03T23:37:36;9.53;;;4.03;;
16977;SDS011;8605;52.548;4.918;2022-10-03T23:43:14;8.73;;;3.57;;
16977;SDS011;8605;52.548;4.918;2022-10-03T23:48:45;10.80;;;3.53;;
16977;SDS011;8605;52.548;4.918;2022-10-03T23:54:11;17.80;;;4.37;;
16977;SDS011;8605;52.548;4.918;2022-10-03T23:59:35;12.27;;;3.13;;
